Providence, Rhode Island
Traffic Map
Current Weather Conditions
Providence, Rhode Island
Clear
Clear

Feels Like: -3°
Wind Chill: -3° Ceiling: Unl
Heat Index: Visibility: 10mi
Dew Point: -10° Wind: 10mph
Humidity: 44% Direction: 300° (WNW)
Pressure: 30.16in Gusts: 0mph
Raw Report DataKPVD 270151Z 30009KT 10SM CLR 01/M10 A3016 RMK AO2 SLP214 T00111100 $
Traffic Incident Summary
Active as of:
Severity:
Category:
InformationThere was an issue retrieving the traffic information for this location. Please try a different location or try again shortly.
Advertisements
Track Severe Weather on mobile